Time;durP1;ratioP1;P1;durP2;ratioP2;P2;SDS_P1;SDS_P2;PMS_P1;PMS_P2;Temp;Humidity;BMP_temperature;BMP_pressure;BME280_temperature;BME280_humidity;BME280_pressure;Samples;Min_cycle;Max_cycle;Signal;HPM_P1;HPM_P2
2023/09/05 00:00:14;;;;;;;13.37;12.83;;;20.00;99.90;;;;;;4947634;28;20461;-82
2023/09/05 00:06:28;;;;;;;13.90;13.40;;;19.80;99.90;;;;;;4950643;28;20584;-81
2023/09/05 00:09:57;;;;;;;14.53;13.90;;;19.70;99.90;;;;;;4949202;28;20462;-81
2023/09/05 00:12:54;;;;;;;15.27;14.57;;;19.60;99.90;;;;;;4948255;28;20460;-80
2023/09/05 00:23:28;;;;;;;13.17;12.67;;;19.60;99.90;;;;;;4850916;29;20469;-82
2023/09/05 00:26:46;;;;;;;13.97;13.37;;;19.60;99.90;;;;;;4855718;29;20513;-82
2023/09/05 00:30:03;;;;;;;13.67;13.17;;;19.60;99.90;;;;;;4858481;29;20867;-81
2023/09/05 00:40:29;;;;;;;13.87;13.37;;;19.40;99.90;;;;;;4934286;28;20457;-82
2023/09/05 00:46:51;;;;;;;14.10;13.40;;;19.30;99.90;;;;;;4975785;28;20581;-82
2023/09/05 00:53:09;;;;;;;13.10;12.70;;;19.30;99.90;;;;;;4943421;28;20607;-80
2023/09/05 00:57:14;;;;;;;13.20;12.70;;;19.30;99.90;;;;;;4983456;28;20455;-81
2023/09/05 01:00:50;;;;;;;13.87;13.30;;;19.10;99.90;;;;;;4963374;28;21067;-83
2023/09/05 01:06:47;;;;;;;13.27;12.83;;;19.00;99.90;;;;;;4980186;28;21279;-79
2023/09/05 01:10:27;;;;;;;12.97;12.57;;;19.00;99.90;;;;;;4981693;28;21090;-80
2023/09/05 01:17:29;;;;;;;12.90;12.50;;;19.00;99.90;;;;;;4984912;28;20459;-81
2023/09/05 01:21:30;;;;;;;12.73;12.33;;;18.90;99.90;;;;;;4987171;28;20451;-81
2023/09/05 01:24:49;;;;;;;12.70;12.10;;;18.80;99.90;;;;;;5026792;23;20499;-80
2023/09/05 01:27:53;;;;;;;12.00;11.50;;;18.80;99.90;;;;;;5002597;28;20575;-81
2023/09/05 01:34:12;;;;;;;12.50;12.10;;;18.70;99.90;;;;;;5005637;28;20494;-81
2023/09/05 01:38:02;;;;;;;12.43;12.13;;;18.60;99.90;;;;;;5013805;28;20519;-80
2023/09/05 01:41:25;;;;;;;13.07;12.57;;;18.50;99.90;;;;;;5012666;28;20532;-81
2023/09/05 01:47:57;;;;;;;12.87;12.37;;;18.50;99.90;;;;;;5012104;28;20483;-79
2023/09/05 01:51:10;;;;;;;13.20;12.70;;;18.50;99.90;;;;;;4967741;28;20467;-81
2023/09/05 01:57:48;;;;;;;12.70;12.30;;;18.40;99.90;;;;;;4965526;28;20476;-82
2023/09/05 02:01:08;;;;;;;12.87;12.47;;;18.40;99.90;;;;;;5013335;28;20449;-81
2023/09/05 02:04:13;;;;;;;12.87;12.37;;;18.40;99.90;;;;;;5005358;28;20461;-81
2023/09/05 02:10:54;;;;;;;12.43;12.03;;;18.30;99.90;;;;;;5024500;28;20786;-79
2023/09/05 02:14:02;;;;;;;12.00;11.50;;;18.30;99.90;;;;;;5012508;28;20504;-81
2023/09/05 02:17:12;;;;;;;11.47;11.23;;;18.30;99.90;;;;;;5009860;28;20453;-81
2023/09/05 02:20:29;;;;;;;11.37;11.07;;;18.30;99.90;;;;;;5015648;28;20457;-81
2023/09/05 02:23:21;;;;;;;11.60;11.20;;;18.40;99.90;;;;;;5015212;28;20540;-81
2023/09/05 02:26:22;;;;;;;11.60;11.30;;;18.50;99.90;;;;;;5012303;28;20477;-82
2023/09/05 02:29:14;;;;;;;12.20;11.80;;;18.40;99.90;;;;;;5014427;28;20493;-81
2023/09/05 02:32:29;;;;;;;11.97;11.57;;;18.40;99.90;;;;;;5013374;28;21045;-82
2023/09/05 02:35:47;;;;;;;11.83;11.30;;;18.40;99.90;;;;;;5013655;28;20513;-80
2023/09/05 02:44:52;;;;;;;13.23;12.53;;;18.30;99.90;;;;;;5484410;23;20688;-83
2023/09/05 02:47:22;;;;;;;12.17;11.77;;;18.30;99.90;;;;;;4968707;28;20552;-81
2023/09/05 02:49:50;;;;;;;13.40;12.90;;;18.30;99.90;;;;;;4948093;28;20452;-80
2023/09/05 02:52:21;;;;;;;13.70;13.20;;;18.30;99.90;;;;;;4946778;28;20956;-84
2023/09/05 02:54:55;;;;;;;22.27;20.10;;;18.20;99.90;;;;;;4945099;28;20528;-82
2023/09/05 02:57:24;;;;;;;65.07;39.93;;;18.10;99.90;;;;;;4945944;28;20459;-81
2023/09/05 02:59:53;;;;;;;16.57;15.37;;;18.10;99.90;;;;;;4942425;28;20460;-81
2023/09/05 03:02:23;;;;;;;18.20;16.93;;;18.00;99.90;;;;;;4944935;28;20465;-81
2023/09/05 03:04:53;;;;;;;15.10;14.40;;;18.00;99.90;;;;;;4944822;28;20485;-83
2023/09/05 03:07:21;;;;;;;14.10;13.53;;;18.00;99.90;;;;;;4945069;28;21050;-82
2023/09/05 03:09:51;;;;;;;13.40;12.90;;;18.00;99.90;;;;;;4943439;28;20469;-80
2023/09/05 03:12:19;;;;;;;14.10;13.50;;;17.90;99.90;;;;;;4948503;28;21075;-82
2023/09/05 03:14:48;;;;;;;14.73;14.13;;;18.00;99.90;;;;;;4944164;28;21295;-82
2023/09/05 03:17:16;;;;;;;14.20;13.57;;;17.90;99.90;;;;;;4942109;28;20480;-81
2023/09/05 03:19:45;;;;;;;14.23;13.63;;;17.80;99.90;;;;;;4943313;28;21016;-81
2023/09/05 03:22:13;;;;;;;15.47;14.77;;;17.80;99.90;;;;;;4944727;28;20454;-83
2023/09/05 03:24:41;;;;;;;13.57;13.00;;;17.70;99.90;;;;;;4946429;28;20481;-81
2023/09/05 03:27:09;;;;;;;13.80;13.30;;;17.70;99.90;;;;;;4945743;28;20969;-82
2023/09/05 03:29:37;;;;;;;13.53;13.13;;;17.70;99.90;;;;;;4943393;28;20469;-82
2023/09/05 03:32:06;;;;;;;14.07;13.50;;;17.70;99.90;;;;;;4942397;28;20507;-82
2023/09/05 03:34:34;;;;;;;15.07;14.47;;;17.70;99.90;;;;;;4944055;28;20484;-82
2023/09/05 03:37:04;;;;;;;14.03;13.50;;;17.70;99.90;;;;;;4945088;28;20464;-80
2023/09/05 03:39:32;;;;;;;13.90;13.40;;;17.60;99.90;;;;;;4946135;28;20456;-83
2023/09/05 03:42:00;;;;;;;14.70;14.20;;;17.70;99.90;;;;;;4943799;28;20461;-84
2023/09/05 03:44:28;;;;;;;13.47;12.97;;;17.70;99.90;;;;;;4946297;28;20472;-81
2023/09/05 03:46:57;;;;;;;13.27;12.80;;;17.70;99.90;;;;;;4943881;28;20478;-81
2023/09/05 03:49:25;;;;;;;13.10;12.70;;;17.80;99.90;;;;;;4946998;28;20490;-82
2023/09/05 03:51:57;;;;;;;13.30;12.90;;;17.70;99.90;;;;;;4946242;28;20464;-81
2023/09/05 03:54:26;;;;;;;12.73;12.33;;;17.80;99.90;;;;;;4944132;28;20481;-82
2023/09/05 03:56:54;;;;;;;13.83;13.23;;;17.80;99.90;;;;;;4943286;28;20467;-82
2023/09/05 03:59:22;;;;;;;13.10;12.30;;;17.80;99.90;;;;;;4945029;28;20441;-82
2023/09/05 04:01:50;;;;;;;12.70;12.30;;;18.00;99.90;;;;;;4940039;28;20463;-82
2023/09/05 04:04:18;;;;;;;13.30;12.70;;;17.90;99.90;;;;;;4944471;28;20236;-82
2023/09/05 04:06:46;;;;;;;12.33;12.00;;;17.90;99.90;;;;;;4944688;28;20449;-82
2023/09/05 04:09:14;;;;;;;12.90;12.30;;;18.00;99.90;;;;;;4944358;28;20473;-83
2023/09/05 04:11:44;;;;;;;12.73;12.23;;;18.00;99.90;;;;;;4942261;28;20466;-82
2023/09/05 04:14:12;;;;;;;13.27;12.60;;;18.00;99.90;;;;;;4941806;28;21094;-83
2023/09/05 04:16:41;;;;;;;12.73;12.23;;;18.10;99.90;;;;;;4943221;28;20843;-82
2023/09/05 04:19:09;;;;;;;12.80;12.20;;;18.10;99.90;;;;;;4942676;28;20556;-82
2023/09/05 04:21:39;;;;;;;13.10;12.50;;;18.10;99.90;;;;;;4945737;28;20460;-80
2023/09/05 04:24:07;;;;;;;13.30;12.90;;;18.00;99.90;;;;;;4948438;28;21210;-81
2023/09/05 04:26:37;;;;;;;13.17;12.57;;;18.00;99.90;;;;;;4944529;28;20456;-83
2023/09/05 04:29:07;;;;;;;13.17;12.77;;;18.10;99.90;;;;;;4942415;28;20477;-83
2023/09/05 04:31:37;;;;;;;13.10;12.70;;;18.10;99.90;;;;;;4944751;28;20819;-80
2023/09/05 04:34:05;;;;;;;12.73;12.33;;;18.20;99.90;;;;;;4944147;28;20499;-82
2023/09/05 04:36:34;;;;;;;13.60;13.10;;;18.20;99.90;;;;;;4943780;28;20475;-82
2023/09/05 04:39:02;;;;;;;13.67;13.17;;;18.20;99.90;;;;;;4943092;28;20545;-81
2023/09/05 04:41:30;;;;;;;13.60;13.10;;;18.20;99.90;;;;;;4941531;28;20458;-81
2023/09/05 04:43:58;;;;;;;15.17;14.47;;;18.20;99.90;;;;;;4944900;28;20477;-81
2023/09/05 04:46:37;;;;;;;13.60;13.10;;;18.20;99.90;;;;;;4945949;28;20468;-82
2023/09/05 04:49:06;;;;;;;13.30;12.80;;;18.20;99.90;;;;;;4945482;28;20899;-82
2023/09/05 04:51:34;;;;;;;13.43;12.97;;;18.20;99.90;;;;;;4941218;28;20453;-82
2023/09/05 04:54:02;;;;;;;14.63;13.90;;;18.20;99.90;;;;;;4943725;28;20492;-82
2023/09/05 04:56:30;;;;;;;13.73;13.23;;;18.20;99.90;;;;;;4946123;28;20468;-82
2023/09/05 04:58:58;;;;;;;15.07;14.23;;;18.10;99.90;;;;;;4944680;28;20460;-81
2023/09/05 05:01:28;;;;;;;15.57;14.57;;;18.00;99.90;;;;;;4941874;28;20528;-81
2023/09/05 05:03:56;;;;;;;14.37;13.80;;;17.90;99.90;;;;;;4944522;28;21168;-81
2023/09/05 05:06:28;;;;;;;14.63;13.70;;;17.90;99.90;;;;;;4945370;28;20446;-82
2023/09/05 05:08:56;;;;;;;14.20;13.50;;;17.80;99.90;;;;;;4944428;28;20476;-84
2023/09/05 05:11:24;;;;;;;13.60;13.10;;;17.80;99.90;;;;;;4943076;28;20453;-83
2023/09/05 05:13:52;;;;;;;14.27;13.77;;;17.90;99.90;;;;;;4940880;28;20460;-83
2023/09/05 05:16:20;;;;;;;14.33;13.73;;;17.90;99.90;;;;;;4943557;28;20477;-83
2023/09/05 05:18:50;;;;;;;14.00;13.40;;;17.90;99.90;;;;;;4944613;28;20557;-80
2023/09/05 05:21:18;;;;;;;14.63;13.80;;;17.90;99.90;;;;;;4942214;28;20460;-81
2023/09/05 05:23:46;;;;;;;13.90;13.20;;;17.90;99.90;;;;;;4944238;28;20460;-82
2023/09/05 05:26:14;;;;;;;14.10;13.50;;;17.90;99.90;;;;;;4943137;28;21193;-84
2023/09/05 05:28:42;;;;;;;13.90;13.30;;;17.90;99.90;;;;;;4945332;28;20860;-82
2023/09/05 05:31:13;;;;;;;14.50;13.27;;;17.90;99.90;;;;;;4944093;28;21013;-82
2023/09/05 05:33:41;;;;;;;14.43;13.83;;;17.80;99.90;;;;;;4938908;28;20460;-82
2023/09/05 05:36:11;;;;;;;15.17;14.37;;;17.70;99.90;;;;;;4943466;28;20460;-83
2023/09/05 05:38:42;;;;;;;15.10;14.40;;;17.70;99.90;;;;;;4942646;28;20485;-80
2023/09/05 05:41:10;;;;;;;14.73;14.03;;;17.70;99.90;;;;;;4942032;28;20456;-82
2023/09/05 05:43:39;;;;;;;15.33;14.43;;;17.70;99.90;;;;;;4946021;28;20967;-81
2023/09/05 05:46:09;;;;;;;16.07;14.80;;;17.70;99.90;;;;;;4940699;28;20543;-79
2023/09/05 05:48:38;;;;;;;15.00;14.30;;;17.70;99.90;;;;;;4941534;28;20563;-78
2023/09/05 05:51:06;;;;;;;14.73;14.13;;;17.70;99.90;;;;;;4943842;28;20538;-79
2023/09/05 05:53:35;;;;;;;14.77;14.27;;;17.70;99.90;;;;;;4940444;28;21787;-78
2023/09/05 05:56:04;;;;;;;15.70;15.00;;;17.70;99.90;;;;;;4940601;28;20457;-79
2023/09/05 05:58:35;;;;;;;14.73;14.13;;;17.80;99.90;;;;;;4940863;28;20543;-78
2023/09/05 06:01:06;;;;;;;14.30;13.80;;;17.90;99.90;;;;;;4942141;28;20551;-79
2023/09/05 06:03:35;;;;;;;13.87;13.40;;;18.10;99.90;;;;;;4943301;28;20448;-79
2023/09/05 06:06:04;;;;;;;14.20;13.70;;;18.30;99.90;;;;;;4938251;28;20469;-79
2023/09/05 06:08:32;;;;;;;13.40;12.90;;;18.70;99.90;;;;;;4938088;28;20460;-78
2023/09/05 06:11:02;;;;;;;13.33;12.80;;;18.90;99.90;;;;;;4943486;28;20981;-78
2023/09/05 06:13:30;;;;;;;13.67;13.20;;;19.20;99.90;;;;;;4940466;28;20947;-78
2023/09/05 06:15:58;;;;;;;14.27;13.67;;;19.40;99.90;;;;;;4939548;28;20508;-78
2023/09/05 06:18:26;;;;;;;13.07;12.67;;;19.60;99.90;;;;;;4938230;28;20835;-78
2023/09/05 06:20:55;;;;;;;14.90;14.10;;;19.80;99.90;;;;;;4941873;28;20559;-78
2023/09/05 06:23:23;;;;;;;15.30;14.40;;;19.90;99.90;;;;;;4942159;28;20461;-79
2023/09/05 06:25:51;;;;;;;15.67;15.07;;;19.80;99.90;;;;;;4942931;28;20469;-78
2023/09/05 06:28:21;;;;;;;15.30;14.70;;;19.70;99.90;;;;;;4939223;28;20485;-77
2023/09/05 06:30:49;;;;;;;15.80;15.00;;;19.70;99.90;;;;;;4943113;28;20590;-78
2023/09/05 06:33:17;;;;;;;14.80;14.20;;;19.60;99.90;;;;;;4940572;28;20460;-78
2023/09/05 06:35:45;;;;;;;15.97;15.27;;;19.60;99.90;;;;;;4941991;28;20513;-78
2023/09/05 06:38:14;;;;;;;14.83;14.23;;;19.60;99.90;;;;;;4940500;28;20468;-78
2023/09/05 06:40:42;;;;;;;15.57;14.93;;;19.50;99.90;;;;;;4940466;28;20452;-78
2023/09/05 06:43:10;;;;;;;15.73;15.03;;;19.60;99.90;;;;;;4939511;28;20472;-78
2023/09/05 06:45:40;;;;;;;14.67;13.90;;;19.60;99.90;;;;;;4938972;28;20487;-79
2023/09/05 06:48:08;;;;;;;14.03;13.43;;;19.70;99.90;;;;;;4940790;28;20964;-78
2023/09/05 06:50:36;;;;;;;14.00;13.30;;;19.70;99.90;;;;;;4940684;28;20485;-77
2023/09/05 06:53:04;;;;;;;13.43;12.93;;;19.70;99.90;;;;;;4940094;28;20496;-78
2023/09/05 06:55:34;;;;;;;14.20;13.60;;;19.80;99.90;;;;;;4942641;28;21081;-79
2023/09/05 06:58:04;;;;;;;13.40;12.90;;;19.90;99.90;;;;;;4938682;28;20540;-78
2023/09/05 07:00:35;;;;;;;14.30;13.70;;;19.90;99.90;;;;;;4942963;28;20465;-79
2023/09/05 07:03:05;;;;;;;13.90;13.40;;;19.90;99.90;;;;;;4941477;28;20852;-79
2023/09/05 07:05:33;;;;;;;13.00;12.60;;;20.00;99.90;;;;;;4941969;28;20476;-79
2023/09/05 07:08:02;;;;;;;13.40;12.93;;;20.00;99.90;;;;;;4939092;28;20453;-79
2023/09/05 07:10:30;;;;;;;13.27;12.87;;;20.00;99.90;;;;;;4942141;28;21004;-77
2023/09/05 07:12:58;;;;;;;14.20;13.50;;;20.00;99.90;;;;;;4938136;28;20458;-79
2023/09/05 07:15:26;;;;;;;13.13;12.73;;;20.10;99.90;;;;;;4934586;28;20571;-79
2023/09/05 07:17:54;;;;;;;14.20;13.60;;;20.10;99.90;;;;;;4943405;28;20508;-78
2023/09/05 07:20:24;;;;;;;13.80;13.40;;;20.20;99.90;;;;;;4941851;28;20559;-78
2023/09/05 07:22:52;;;;;;;14.20;13.70;;;20.30;99.90;;;;;;4941126;28;20461;-79
2023/09/05 07:25:20;;;;;;;14.40;13.90;;;20.30;99.90;;;;;;4941699;28;20471;-78
2023/09/05 07:27:48;;;;;;;15.03;14.33;;;20.40;99.90;;;;;;4941008;28;20461;-80
2023/09/05 07:30:17;;;;;;;14.40;13.90;;;20.40;99.90;;;;;;4941483;28;20484;-79
2023/09/05 07:32:46;;;;;;;14.50;14.00;;;20.50;99.90;;;;;;4939034;28;20467;-79
2023/09/05 07:35:14;;;;;;;14.77;14.17;;;20.60;99.90;;;;;;4941337;28;20545;-76
2023/09/05 07:37:43;;;;;;;14.60;13.80;;;20.60;99.90;;;;;;4941925;28;20457;-79
2023/09/05 07:40:14;;;;;;;14.60;14.20;;;20.60;99.90;;;;;;4939498;28;20457;-78
2023/09/05 07:42:42;;;;;;;14.43;14.03;;;20.60;99.90;;;;;;4940801;28;20543;-78
2023/09/05 07:45:11;;;;;;;14.53;14.13;;;20.70;99.90;;;;;;4940163;28;20477;-78
2023/09/05 07:47:39;;;;;;;14.77;14.20;;;20.80;99.90;;;;;;4939441;28;20460;-79
2023/09/05 07:50:08;;;;;;;14.53;14.13;;;20.80;99.90;;;;;;4940739;28;20491;-79
2023/09/05 07:52:36;;;;;;;14.73;14.27;;;21.00;99.90;;;;;;4941660;28;20460;-78
2023/09/05 07:55:07;;;;;;;14.30;13.83;;;21.10;99.90;;;;;;4939671;28;20477;-78
2023/09/05 07:57:36;;;;;;;14.33;13.93;;;21.20;99.90;;;;;;4941676;28;20519;-79
2023/09/05 08:00:08;;;;;;;15.10;14.60;;;21.20;99.90;;;;;;4941209;28;20548;-79
2023/09/05 08:02:36;;;;;;;14.87;14.47;;;21.30;99.90;;;;;;4936946;28;20459;-78
2023/09/05 08:05:06;;;;;;;14.80;14.30;;;21.50;99.90;;;;;;4940874;28;20512;-80
2023/09/05 08:07:35;;;;;;;14.70;14.20;;;21.60;99.90;;;;;;4940810;28;20450;-79
2023/09/05 08:10:06;;;;;;;14.63;14.23;;;21.60;99.90;;;;;;4940702;28;20480;-78
2023/09/05 08:12:34;;;;;;;15.40;14.90;;;21.70;99.90;;;;;;4940776;28;20460;-78
2023/09/05 08:15:03;;;;;;;15.40;14.90;;;21.70;99.90;;;;;;4939502;28;20841;-79
2023/09/05 08:17:31;;;;;;;15.67;15.17;;;21.70;99.90;;;;;;4940749;28;20460;-78
2023/09/05 08:19:59;;;;;;;15.53;15.03;;;21.70;99.90;;;;;;4941273;28;20462;-79
2023/09/05 08:22:27;;;;;;;15.50;14.90;;;21.80;99.90;;;;;;4940124;28;20464;-79
2023/09/05 08:24:55;;;;;;;15.13;14.73;;;21.70;99.90;;;;;;4939698;28;20516;-79
2023/09/05 08:27:28;;;;;;;15.47;15.07;;;21.70;99.90;;;;;;4938638;28;20464;-79
2023/09/05 08:29:57;;;;;;;15.03;14.57;;;21.80;99.90;;;;;;4937812;28;20459;-77
2023/09/05 08:32:28;;;;;;;15.10;14.60;;;21.80;99.90;;;;;;4942353;28;20528;-79
2023/09/05 08:34:57;;;;;;;15.57;15.07;;;21.80;99.90;;;;;;4959561;23;20495;-78
2023/09/05 08:37:26;;;;;;;15.90;15.10;;;21.90;99.90;;;;;;4965181;28;20460;-79
2023/09/05 08:39:56;;;;;;;15.73;15.13;;;22.00;99.90;;;;;;4964254;28;20465;-78
2023/09/05 08:42:33;;;;;;;15.80;15.30;;;22.00;99.90;;;;;;4966386;28;20894;-79
2023/09/05 08:45:04;;;;;;;15.70;15.20;;;22.00;99.90;;;;;;5038268;23;20548;-79
2023/09/05 08:47:34;;;;;;;15.30;14.80;;;22.00;99.90;;;;;;4967601;28;20452;-78
2023/09/05 08:50:04;;;;;;;15.20;14.80;;;22.10;99.90;;;;;;4964955;28;20467;-78
2023/09/05 08:52:36;;;;;;;14.50;14.10;;;22.20;99.90;;;;;;4965629;28;21017;-78
2023/09/05 08:55:04;;;;;;;15.40;14.90;;;22.20;99.90;;;;;;4950607;28;20476;-79
2023/09/05 08:57:35;;;;;;;15.47;14.87;;;22.20;99.90;;;;;;4940512;28;20476;-78
2023/09/05 09:00:06;;;;;;;14.60;14.20;;;22.30;99.90;;;;;;4941216;28;20456;-79
2023/09/05 09:02:35;;;;;;;14.70;14.40;;;22.30;99.90;;;;;;4940604;28;21004;-78
2023/09/05 09:05:05;;;;;;;14.60;14.20;;;22.40;99.90;;;;;;4939837;28;20480;-78
2023/09/05 09:07:33;;;;;;;14.50;14.10;;;22.40;99.90;;;;;;4939932;28;20556;-78
2023/09/05 09:10:17;;;;;;;15.23;14.77;;;22.40;99.90;;;;;;4942301;28;20448;-79
2023/09/05 09:12:47;;;;;;;14.77;14.37;;;22.50;99.90;;;;;;4940852;28;20444;-79
2023/09/05 09:15:15;;;;;;;15.30;14.80;;;22.50;99.90;;;;;;4943620;28;21002;-77
2023/09/05 09:17:47;;;;;;;14.23;13.73;;;22.60;99.90;;;;;;4944580;28;20467;-78
2023/09/05 09:20:16;;;;;;;14.40;13.77;;;22.60;99.90;;;;;;4944502;28;20548;-77
2023/09/05 09:22:44;;;;;;;14.73;14.23;;;22.60;99.90;;;;;;4941993;28;20979;-77
2023/09/05 09:25:14;;;;;;;14.67;14.27;;;22.60;99.90;;;;;;4944780;28;20492;-78
2023/09/05 09:27:42;;;;;;;14.87;14.37;;;22.70;99.90;;;;;;4945374;28;20464;-79
2023/09/05 09:30:13;;;;;;;14.37;13.97;;;22.70;99.90;;;;;;4941421;28;20582;-78
2023/09/05 09:32:41;;;;;;;14.77;14.27;;;22.70;99.90;;;;;;4943719;28;20487;-79
2023/09/05 09:35:12;;;;;;;14.43;14.03;;;22.80;99.90;;;;;;4942550;28;21070;-79
2023/09/05 09:37:40;;;;;;;14.20;13.80;;;22.90;99.90;;;;;;4943897;28;20463;-79
2023/09/05 09:40:08;;;;;;;14.70;14.30;;;23.00;99.90;;;;;;4942152;28;21517;-79
2023/09/05 09:42:36;;;;;;;15.00;14.60;;;23.10;99.90;;;;;;4946947;28;20693;-79
2023/09/05 09:45:07;;;;;;;15.23;14.73;;;23.10;99.90;;;;;;4943006;28;20477;-79
2023/09/05 09:47:45;;;;;;;14.60;14.00;;;23.10;99.90;;;;;;4943945;28;20880;-79
2023/09/05 09:50:14;;;;;;;14.57;14.00;;;23.10;99.90;;;;;;4943936;28;20551;-79
2023/09/05 09:52:44;;;;;;;14.67;14.17;;;23.20;99.90;;;;;;4941810;28;20499;-76
2023/09/05 09:55:14;;;;;;;14.80;14.40;;;23.30;99.90;;;;;;4942016;28;20473;-78
2023/09/05 09:57:47;;;;;;;14.13;13.80;;;23.30;99.90;;;;;;4942873;28;20469;-79
2023/09/05 10:00:18;;;;;;;14.70;14.20;;;23.40;99.90;;;;;;4942245;28;20460;-77
2023/09/05 10:02:50;;;;;;;14.30;13.90;;;23.40;99.90;;;;;;4941645;28;20526;-78
2023/09/05 10:05:19;;;;;;;14.00;13.60;;;23.40;99.90;;;;;;4942334;28;20485;-79
2023/09/05 10:07:49;;;;;;;14.83;14.43;;;23.50;99.90;;;;;;4942178;28;20559;-79
2023/09/05 10:10:18;;;;;;;14.67;14.27;;;23.50;99.90;;;;;;4939465;28;20465;-79
2023/09/05 10:12:47;;;;;;;14.67;14.27;;;23.50;99.90;;;;;;4945688;28;20486;-77
2023/09/05 10:15:16;;;;;;;15.00;14.50;;;23.60;99.90;;;;;;4942556;28;20478;-78
2023/09/05 10:17:46;;;;;;;15.13;14.70;;;23.60;99.90;;;;;;4943668;28;20447;-79
2023/09/05 10:20:19;;;;;;;14.93;14.53;;;23.70;99.90;;;;;;4938591;28;20457;-78
2023/09/05 10:22:53;;;;;;;15.03;14.53;;;23.70;99.90;;;;;;4941634;28;20464;-79
2023/09/05 10:25:22;;;;;;;14.70;14.30;;;23.80;99.90;;;;;;4940844;28;21080;-80
2023/09/05 10:27:50;;;;;;;14.90;14.40;;;23.70;99.90;;;;;;4936602;28;20939;-80
2023/09/05 10:30:19;;;;;;;15.10;14.60;;;23.80;99.90;;;;;;4940969;28;20457;-78
2023/09/05 10:32:49;;;;;;;15.23;14.73;;;23.90;99.90;;;;;;4944422;28;20475;-77
2023/09/05 10:35:20;;;;;;;14.40;14.00;;;23.90;99.90;;;;;;4942944;28;20481;-79
2023/09/05 10:37:59;;;;;;;14.43;14.00;;;23.80;99.90;;;;;;4943012;28;20450;-79
2023/09/05 10:40:35;;;;;;;15.00;14.50;;;24.00;99.90;;;;;;4944468;28;20535;-78
2023/09/05 10:43:05;;;;;;;14.60;14.20;;;24.00;99.90;;;;;;4940108;28;20463;-78
2023/09/05 10:45:35;;;;;;;15.00;14.50;;;24.00;99.90;;;;;;4941608;28;20488;-79
2023/09/05 10:48:15;;;;;;;15.27;14.77;;;24.00;99.90;;;;;;4942250;28;20463;-79
2023/09/05 10:51:05;;;;;;;15.40;15.00;;;24.00;99.90;;;;;;4944809;28;20464;-79
2023/09/05 10:53:34;;;;;;;15.20;14.80;;;24.10;99.90;;;;;;4941056;28;20460;-77
2023/09/05 10:56:02;;;;;;;15.30;14.70;;;24.10;99.90;;;;;;4943663;28;20874;-79
2023/09/05 10:58:42;;;;;;;15.33;14.93;;;24.00;99.90;;;;;;4942379;28;20465;-79
2023/09/05 11:01:48;;;;;;;15.30;14.70;;;24.10;99.90;;;;;;4942257;28;20534;-79
2023/09/05 11:04:29;;;;;;;15.30;14.90;;;24.10;99.90;;;;;;4941367;28;20579;-80
2023/09/05 11:07:02;;;;;;;15.47;15.00;;;24.10;99.90;;;;;;4944433;28;20464;-79
2023/09/05 11:09:40;;;;;;;15.13;14.67;;;24.20;99.90;;;;;;4945329;28;20466;-78
2023/09/05 11:12:09;;;;;;;14.70;14.30;;;24.40;99.90;;;;;;4943149;28;21426;-79
2023/09/05 11:14:38;;;;;;;15.40;15.00;;;24.40;99.90;;;;;;4944500;28;20507;-79
2023/09/05 11:17:11;;;;;;;15.40;14.90;;;24.40;99.90;;;;;;4943466;28;20464;-79
2023/09/05 11:19:42;;;;;;;15.47;14.87;;;24.50;99.90;;;;;;4942948;28;20441;-78
2023/09/05 11:22:15;;;;;;;16.33;15.73;;;24.50;99.90;;;;;;4943484;28;20525;-78
2023/09/05 11:24:48;;;;;;;16.00;15.30;;;24.50;99.90;;;;;;4942802;28;20481;-79
2023/09/05 11:27:18;;;;;;;15.43;14.83;;;24.50;99.90;;;;;;4941131;28;20534;-78
2023/09/05 11:29:46;;;;;;;15.37;14.97;;;24.50;99.90;;;;;;4939076;28;20526;-80
2023/09/05 11:32:15;;;;;;;16.07;15.47;;;24.50;99.90;;;;;;4942793;28;20481;-77
2023/09/05 11:34:45;;;;;;;16.20;15.70;;;24.50;99.90;;;;;;4940861;28;20487;-78
2023/09/05 11:37:22;;;;;;;15.03;14.53;;;24.50;99.90;;;;;;4942757;28;20459;-80
2023/09/05 11:39:52;;;;;;;14.80;14.30;;;24.60;99.90;;;;;;4942524;28;20452;-80
2023/09/05 11:42:22;;;;;;;15.00;14.50;;;24.60;99.90;;;;;;4940523;28;20463;-80
2023/09/05 11:44:52;;;;;;;15.43;14.93;;;24.60;99.90;;;;;;4939385;28;20496;-77
2023/09/05 11:47:22;;;;;;;15.67;15.17;;;24.60;99.90;;;;;;4942819;28;20940;-78
2023/09/05 11:49:53;;;;;;;15.33;14.83;;;24.60;99.90;;;;;;4943283;28;20463;-79
2023/09/05 11:52:24;;;;;;;15.13;14.63;;;24.70;99.90;;;;;;4942618;28;20487;-79
2023/09/05 11:54:54;;;;;;;14.80;14.40;;;24.70;99.90;;;;;;4942160;28;20564;-80
2023/09/05 11:57:24;;;;;;;14.77;14.47;;;24.70;99.90;;;;;;4943742;28;20475;-79
2023/09/05 11:59:52;;;;;;;15.93;15.33;;;24.70;99.90;;;;;;4944019;28;20460;-80
2023/09/05 12:02:20;;;;;;;14.80;14.40;;;24.70;99.90;;;;;;4943412;28;20445;-79
2023/09/05 12:04:49;;;;;;;15.20;14.73;;;24.80;99.90;;;;;;4943882;28;20473;-80
2023/09/05 12:07:19;;;;;;;14.90;14.53;;;24.70;99.90;;;;;;4940212;28;20504;-81
2023/09/05 12:09:48;;;;;;;14.90;14.50;;;24.80;99.90;;;;;;4941559;28;20820;-80
2023/09/05 12:12:19;;;;;;;14.87;14.30;;;24.70;99.90;;;;;;4942472;28;20486;-80
2023/09/05 12:14:52;;;;;;;15.47;14.97;;;24.90;99.90;;;;;;4944829;28;20480;-78
2023/09/05 12:17:22;;;;;;;14.90;14.50;;;24.80;99.90;;;;;;4942883;28;20490;-79
2023/09/05 12:19:52;;;;;;;14.47;14.07;;;25.00;99.90;;;;;;4944576;28;20470;-81
2023/09/05 12:22:26;;;;;;;14.67;14.20;;;25.00;99.90;;;;;;4945919;28;21232;-80
2023/09/05 12:25:10;;;;;;;14.47;14.07;;;25.00;99.90;;;;;;4941362;28;20480;-78
2023/09/05 12:27:42;;;;;;;14.03;13.73;;;25.00;99.90;;;;;;4942697;28;20481;-79
2023/09/05 12:30:25;;;;;;;14.47;13.97;;;24.90;99.90;;;;;;4942782;28;20533;-80
2023/09/05 12:32:56;;;;;;;14.43;14.03;;;25.00;99.90;;;;;;4944327;28;21068;-80
2023/09/05 12:35:25;;;;;;;14.60;14.20;;;25.00;99.90;;;;;;4942339;28;20495;-79
2023/09/05 12:37:54;;;;;;;15.03;14.53;;;25.00;99.90;;;;;;4941195;28;20840;-79
2023/09/05 12:40:25;;;;;;;14.93;14.53;;;25.00;99.90;;;;;;4942280;28;20457;-80
2023/09/05 12:42:53;;;;;;;14.87;14.33;;;25.10;99.90;;;;;;4944561;28;20468;-81
2023/09/05 12:45:21;;;;;;;14.60;14.20;;;25.20;99.90;;;;;;4939765;28;20481;-79
2023/09/05 12:47:51;;;;;;;14.20;13.90;;;25.10;99.90;;;;;;4942329;28;20504;-79
2023/09/05 12:50:25;;;;;;;14.90;14.50;;;25.10;99.90;;;;;;4944608;28;20522;-80
2023/09/05 12:52:54;;;;;;;14.60;14.20;;;25.10;99.90;;;;;;4946171;28;20489;-79
2023/09/05 12:55:24;;;;;;;14.77;14.40;;;25.10;99.90;;;;;;4948323;28;20499;-80
2023/09/05 12:57:53;;;;;;;14.60;14.20;;;25.10;99.90;;;;;;4947212;28;20985;-80
2023/09/05 13:00:22;;;;;;;14.57;14.17;;;25.10;99.90;;;;;;4944955;28;20463;-80
2023/09/05 13:02:50;;;;;;;14.43;14.03;;;25.20;99.90;;;;;;4943858;28;20471;-79
2023/09/05 13:05:18;;;;;;;14.83;14.43;;;25.20;99.90;;;;;;4944658;28;20543;-79
2023/09/05 13:07:46;;;;;;;14.47;14.17;;;25.20;99.90;;;;;;4945575;28;20460;-79
2023/09/05 13:10:15;;;;;;;14.83;14.20;;;25.20;99.90;;;;;;4943204;28;20465;-79
2023/09/05 13:12:46;;;;;;;14.90;14.40;;;25.30;99.90;;;;;;4944273;28;20564;-80
2023/09/05 13:15:14;;;;;;;14.53;14.13;;;25.30;99.90;;;;;;4944987;28;21036;-81
2023/09/05 13:17:45;;;;;;;14.10;13.70;;;25.40;99.90;;;;;;4946842;28;20556;-80
2023/09/05 13:20:14;;;;;;;14.10;13.70;;;25.40;99.90;;;;;;4946181;28;20478;-80
2023/09/05 13:22:47;;;;;;;14.27;13.87;;;25.40;99.90;;;;;;4942745;28;20556;-79
2023/09/05 13:25:18;;;;;;;14.47;14.13;;;25.40;99.90;;;;;;4943881;28;20490;-80
2023/09/05 13:27:48;;;;;;;14.57;14.07;;;25.40;99.90;;;;;;4943982;28;20456;-80
2023/09/05 13:30:17;;;;;;;15.00;14.50;;;25.30;99.90;;;;;;4945210;28;20467;-80
2023/09/05 13:32:45;;;;;;;14.60;14.00;;;25.40;99.90;;;;;;4945456;28;20464;-80
2023/09/05 13:35:13;;;;;;;14.20;13.80;;;25.40;99.90;;;;;;4942767;28;21809;-80
2023/09/05 13:37:42;;;;;;;13.87;13.47;;;25.40;99.90;;;;;;4946774;28;20463;-79
2023/09/05 13:40:11;;;;;;;14.23;13.83;;;25.40;99.90;;;;;;4945329;28;20468;-79
2023/09/05 13:42:39;;;;;;;14.07;13.67;;;25.40;99.90;;;;;;4947105;28;21305;-79
2023/09/05 13:45:09;;;;;;;14.37;13.90;;;25.50;99.90;;;;;;4943034;28;20483;-80
2023/09/05 13:47:39;;;;;;;14.23;13.83;;;25.50;99.90;;;;;;4945138;28;20996;-80
2023/09/05 13:50:09;;;;;;;14.30;13.90;;;25.40;99.90;;;;;;4946606;28;20448;-80
2023/09/05 13:52:40;;;;;;;14.10;13.70;;;25.40;99.90;;;;;;4943216;28;20473;-80
2023/09/05 13:55:08;;;;;;;14.43;13.90;;;25.50;99.90;;;;;;4945632;28;20493;-81
2023/09/05 13:57:37;;;;;;;13.70;13.40;;;25.50;99.90;;;;;;4946261;28;20464;-80